sensor_id;sensor_type;location;lat;lon;timestamp;P1;durP1;ratioP1;P2;durP2;ratioP2
18168;SDS011;49877;50.398;30.324;2022-08-03T00:01:57;15.07;;;10.67;;
18168;SDS011;49877;50.398;30.324;2022-08-03T00:04:27;14.87;;;10.80;;
18168;SDS011;49877;50.398;30.324;2022-08-03T00:06:54;13.07;;;9.70;;
18168;SDS011;49877;50.398;30.324;2022-08-03T00:09:21;12.63;;;10.50;;
18168;SDS011;49877;50.398;30.324;2022-08-03T00:11:47;13.43;;;10.50;;
18168;SDS011;49877;50.398;30.324;2022-08-03T00:14:14;11.97;;;10.37;;
18168;SDS011;49877;50.398;30.324;2022-08-03T00:16:41;13.80;;;10.70;;
18168;SDS011;49877;50.398;30.324;2022-08-03T00:19:08;12.63;;;9.87;;
18168;SDS011;49877;50.398;30.324;2022-08-03T00:21:37;15.10;;;10.53;;
18168;SDS011;49877;50.398;30.324;2022-08-03T00:24:04;12.10;;;10.80;;
18168;SDS011;49877;50.398;30.324;2022-08-03T00:26:31;13.77;;;10.77;;
18168;SDS011;49877;50.398;30.324;2022-08-03T00:28:58;15.20;;;10.67;;
18168;SDS011;49877;50.398;30.324;2022-08-03T00:31:25;16.83;;;10.27;;
18168;SDS011;49877;50.398;30.324;2022-08-03T00:33:52;12.57;;;10.57;;
18168;SDS011;49877;50.398;30.324;2022-08-03T00:36:19;15.77;;;10.00;;
18168;SDS011;49877;50.398;30.324;2022-08-03T00:38:47;14.20;;;10.83;;
18168;SDS011;49877;50.398;30.324;2022-08-03T00:41:14;11.87;;;10.53;;
18168;SDS011;49877;50.398;30.324;2022-08-03T00:43:41;11.47;;;10.23;;
18168;SDS011;49877;50.398;30.324;2022-08-03T00:46:09;14.17;;;10.70;;
18168;SDS011;49877;50.398;30.324;2022-08-03T00:48:35;14.87;;;11.50;;
18168;SDS011;49877;50.398;30.324;2022-08-03T00:51:02;14.13;;;10.60;;
18168;SDS011;49877;50.398;30.324;2022-08-03T00:53:31;13.37;;;10.83;;
18168;SDS011;49877;50.398;30.324;2022-08-03T00:56:01;12.67;;;10.43;;
18168;SDS011;49877;50.398;30.324;2022-08-03T00:58:28;14.07;;;11.40;;
18168;SDS011;49877;50.398;30.324;2022-08-03T01:00:55;15.80;;;11.43;;
18168;SDS011;49877;50.398;30.324;2022-08-03T01:03:22;16.97;;;11.50;;
18168;SDS011;49877;50.398;30.324;2022-08-03T01:05:51;14.80;;;11.50;;
18168;SDS011;49877;50.398;30.324;2022-08-03T01:08:26;16.93;;;11.37;;
18168;SDS011;49877;50.398;30.324;2022-08-03T01:11:01;13.57;;;10.87;;
18168;SDS011;49877;50.398;30.324;2022-08-03T01:13:37;15.27;;;10.77;;
18168;SDS011;49877;50.398;30.324;2022-08-03T01:16:11;12.87;;;10.97;;
18168;SDS011;49877;50.398;30.324;2022-08-03T01:18:44;14.27;;;11.57;;
18168;SDS011;49877;50.398;30.324;2022-08-03T01:21:17;16.63;;;12.03;;
18168;SDS011;49877;50.398;30.324;2022-08-03T01:24:06;14.27;;;11.77;;
18168;SDS011;49877;50.398;30.324;2022-08-03T01:26:58;14.83;;;11.30;;
18168;SDS011;49877;50.398;30.324;2022-08-03T01:29:39;13.13;;;11.10;;
18168;SDS011;49877;50.398;30.324;2022-08-03T01:32:24;15.00;;;10.87;;
18168;SDS011;49877;50.398;30.324;2022-08-03T01:34:58;13.73;;;11.13;;
18168;SDS011;49877;50.398;30.324;2022-08-03T01:37:31;13.97;;;11.20;;
18168;SDS011;49877;50.398;30.324;2022-08-03T01:40:04;17.03;;;11.37;;
18168;SDS011;49877;50.398;30.324;2022-08-03T01:42:33;13.30;;;10.87;;
18168;SDS011;49877;50.398;30.324;2022-08-03T01:45:03;15.20;;;11.00;;
18168;SDS011;49877;50.398;30.324;2022-08-03T01:47:33;14.63;;;10.50;;
18168;SDS011;49877;50.398;30.324;2022-08-03T01:50:02;14.37;;;11.57;;
18168;SDS011;49877;50.398;30.324;2022-08-03T01:52:31;16.73;;;10.60;;
18168;SDS011;49877;50.398;30.324;2022-08-03T01:54:58;13.80;;;10.83;;
18168;SDS011;49877;50.398;30.324;2022-08-03T01:57:28;13.17;;;10.43;;
18168;SDS011;49877;50.398;30.324;2022-08-03T01:59:56;16.03;;;10.90;;
18168;SDS011;49877;50.398;30.324;2022-08-03T02:02:27;16.33;;;10.90;;
18168;SDS011;49877;50.398;30.324;2022-08-03T02:04:56;13.03;;;9.90;;
18168;SDS011;49877;50.398;30.324;2022-08-03T02:07:25;12.60;;;10.93;;
18168;SDS011;49877;50.398;30.324;2022-08-03T02:09:53;12.33;;;10.73;;
18168;SDS011;49877;50.398;30.324;2022-08-03T02:12:22;13.77;;;10.20;;
18168;SDS011;49877;50.398;30.324;2022-08-03T02:14:53;15.20;;;10.73;;
18168;SDS011;49877;50.398;30.324;2022-08-03T02:17:22;15.60;;;10.90;;
18168;SDS011;49877;50.398;30.324;2022-08-03T02:19:52;15.63;;;11.37;;
18168;SDS011;49877;50.398;30.324;2022-08-03T02:22:21;14.37;;;10.87;;
18168;SDS011;49877;50.398;30.324;2022-08-03T02:24:49;15.63;;;11.53;;
18168;SDS011;49877;50.398;30.324;2022-08-03T02:27:17;15.73;;;11.37;;
18168;SDS011;49877;50.398;30.324;2022-08-03T02:29:48;13.37;;;11.27;;
18168;SDS011;49877;50.398;30.324;2022-08-03T02:32:19;17.30;;;11.50;;
18168;SDS011;49877;50.398;30.324;2022-08-03T02:34:50;14.67;;;12.17;;
18168;SDS011;49877;50.398;30.324;2022-08-03T02:37:24;12.37;;;11.00;;
18168;SDS011;49877;50.398;30.324;2022-08-03T02:39:54;15.60;;;11.30;;
18168;SDS011;49877;50.398;30.324;2022-08-03T02:42:27;17.20;;;12.23;;
18168;SDS011;49877;50.398;30.324;2022-08-03T02:44:57;15.00;;;11.07;;
18168;SDS011;49877;50.398;30.324;2022-08-03T02:47:27;14.40;;;11.90;;
18168;SDS011;49877;50.398;30.324;2022-08-03T02:49:56;14.67;;;11.67;;
18168;SDS011;49877;50.398;30.324;2022-08-03T02:52:26;17.40;;;12.13;;
18168;SDS011;49877;50.398;30.324;2022-08-03T02:54:55;16.77;;;11.07;;
18168;SDS011;49877;50.398;30.324;2022-08-03T02:57:25;14.63;;;11.40;;
18168;SDS011;49877;50.398;30.324;2022-08-03T02:59:53;17.67;;;11.87;;
18168;SDS011;49877;50.398;30.324;2022-08-03T03:02:21;18.07;;;12.63;;
18168;SDS011;49877;50.398;30.324;2022-08-03T03:04:50;13.40;;;11.53;;
18168;SDS011;49877;50.398;30.324;2022-08-03T03:07:19;18.40;;;11.67;;
18168;SDS011;49877;50.398;30.324;2022-08-03T03:09:46;18.07;;;12.10;;
18168;SDS011;49877;50.398;30.324;2022-08-03T03:12:14;15.93;;;12.90;;
18168;SDS011;49877;50.398;30.324;2022-08-03T03:14:42;20.40;;;11.63;;
18168;SDS011;49877;50.398;30.324;2022-08-03T03:17:09;16.17;;;11.47;;
18168;SDS011;49877;50.398;30.324;2022-08-03T03:19:37;15.47;;;11.10;;
18168;SDS011;49877;50.398;30.324;2022-08-03T03:22:06;15.50;;;11.30;;
18168;SDS011;49877;50.398;30.324;2022-08-03T03:24:35;18.47;;;12.00;;
18168;SDS011;49877;50.398;30.324;2022-08-03T03:27:03;16.23;;;11.70;;
18168;SDS011;49877;50.398;30.324;2022-08-03T03:29:31;15.67;;;11.50;;
18168;SDS011;49877;50.398;30.324;2022-08-03T03:31:59;17.17;;;12.03;;
18168;SDS011;49877;50.398;30.324;2022-08-03T03:34:27;18.40;;;11.07;;
18168;SDS011;49877;50.398;30.324;2022-08-03T03:36:54;12.37;;;11.07;;
18168;SDS011;49877;50.398;30.324;2022-08-03T03:39:22;14.77;;;11.07;;
18168;SDS011;49877;50.398;30.324;2022-08-03T03:41:51;14.90;;;11.97;;
18168;SDS011;49877;50.398;30.324;2022-08-03T03:44:18;14.80;;;11.97;;
18168;SDS011;49877;50.398;30.324;2022-08-03T03:46:45;14.37;;;11.17;;
18168;SDS011;49877;50.398;30.324;2022-08-03T03:49:12;12.47;;;10.37;;
18168;SDS011;49877;50.398;30.324;2022-08-03T03:51:39;17.67;;;11.90;;
18168;SDS011;49877;50.398;30.324;2022-08-03T03:54:06;17.43;;;11.40;;
18168;SDS011;49877;50.398;30.324;2022-08-03T03:56:33;17.77;;;11.77;;
18168;SDS011;49877;50.398;30.324;2022-08-03T03:59:01;12.57;;;11.27;;
18168;SDS011;49877;50.398;30.324;2022-08-03T04:01:29;17.00;;;11.37;;
18168;SDS011;49877;50.398;30.324;2022-08-03T04:03:56;15.97;;;10.50;;
18168;SDS011;49877;50.398;30.324;2022-08-03T04:06:43;14.10;;;11.07;;
18168;SDS011;49877;50.398;30.324;2022-08-03T04:09:27;13.33;;;10.87;;
18168;SDS011;49877;50.398;30.324;2022-08-03T04:12:13;15.07;;;11.43;;
18168;SDS011;49877;50.398;30.324;2022-08-03T04:14:43;12.57;;;11.23;;
18168;SDS011;49877;50.398;30.324;2022-08-03T04:17:13;16.90;;;11.20;;
18168;SDS011;49877;50.398;30.324;2022-08-03T04:19:42;14.80;;;11.77;;
18168;SDS011;49877;50.398;30.324;2022-08-03T04:22:13;13.37;;;10.77;;
18168;SDS011;49877;50.398;30.324;2022-08-03T04:24:45;16.60;;;10.47;;
18168;SDS011;49877;50.398;30.324;2022-08-03T04:27:18;16.83;;;10.83;;
18168;SDS011;49877;50.398;30.324;2022-08-03T04:29:50;14.03;;;10.97;;
18168;SDS011;49877;50.398;30.324;2022-08-03T04:32:19;15.10;;;10.40;;
18168;SDS011;49877;50.398;30.324;2022-08-03T04:34:49;17.07;;;10.60;;
18168;SDS011;49877;50.398;30.324;2022-08-03T04:37:17;15.33;;;11.13;;
18168;SDS011;49877;50.398;30.324;2022-08-03T04:39:53;12.70;;;9.80;;
18168;SDS011;49877;50.398;30.324;2022-08-03T04:42:24;13.37;;;10.67;;
18168;SDS011;49877;50.398;30.324;2022-08-03T04:44:52;13.80;;;10.77;;
18168;SDS011;49877;50.398;30.324;2022-08-03T04:47:21;14.20;;;10.37;;
18168;SDS011;49877;50.398;30.324;2022-08-03T04:49:48;12.80;;;11.00;;
18168;SDS011;49877;50.398;30.324;2022-08-03T04:52:16;13.93;;;10.70;;
18168;SDS011;49877;50.398;30.324;2022-08-03T04:54:43;12.87;;;9.93;;
18168;SDS011;49877;50.398;30.324;2022-08-03T04:57:12;12.60;;;10.80;;
18168;SDS011;49877;50.398;30.324;2022-08-03T04:59:39;13.63;;;11.10;;
18168;SDS011;49877;50.398;30.324;2022-08-03T05:02:07;14.57;;;10.17;;
18168;SDS011;49877;50.398;30.324;2022-08-03T05:04:34;18.27;;;11.23;;
18168;SDS011;49877;50.398;30.324;2022-08-03T05:07:02;14.03;;;10.20;;
18168;SDS011;49877;50.398;30.324;2022-08-03T05:09:29;13.13;;;10.43;;
18168;SDS011;49877;50.398;30.324;2022-08-03T05:11:55;15.17;;;10.70;;
18168;SDS011;49877;50.398;30.324;2022-08-03T05:14:22;13.90;;;10.10;;
18168;SDS011;49877;50.398;30.324;2022-08-03T05:16:50;12.50;;;10.73;;
18168;SDS011;49877;50.398;30.324;2022-08-03T05:19:18;12.80;;;10.03;;
18168;SDS011;49877;50.398;30.324;2022-08-03T05:21:45;15.70;;;10.50;;
18168;SDS011;49877;50.398;30.324;2022-08-03T05:24:12;14.03;;;10.67;;
18168;SDS011;49877;50.398;30.324;2022-08-03T05:26:39;13.70;;;9.70;;
18168;SDS011;49877;50.398;30.324;2022-08-03T05:29:06;12.53;;;9.63;;
18168;SDS011;49877;50.398;30.324;2022-08-03T05:31:33;13.33;;;9.47;;
18168;SDS011;49877;50.398;30.324;2022-08-03T05:34:00;13.03;;;9.50;;
18168;SDS011;49877;50.398;30.324;2022-08-03T05:36:28;18.83;;;11.03;;
18168;SDS011;49877;50.398;30.324;2022-08-03T05:38:55;15.73;;;10.60;;
18168;SDS011;49877;50.398;30.324;2022-08-03T05:41:22;14.97;;;10.97;;
18168;SDS011;49877;50.398;30.324;2022-08-03T05:43:49;16.50;;;10.87;;
18168;SDS011;49877;50.398;30.324;2022-08-03T05:46:17;12.07;;;9.83;;
18168;SDS011;49877;50.398;30.324;2022-08-03T05:48:45;13.77;;;10.47;;
18168;SDS011;49877;50.398;30.324;2022-08-03T05:51:12;15.47;;;10.43;;
18168;SDS011;49877;50.398;30.324;2022-08-03T05:53:40;14.83;;;10.10;;
18168;SDS011;49877;50.398;30.324;2022-08-03T05:56:08;15.10;;;10.63;;
18168;SDS011;49877;50.398;30.324;2022-08-03T05:58:35;15.50;;;10.07;;
18168;SDS011;49877;50.398;30.324;2022-08-03T06:01:02;16.10;;;10.63;;
18168;SDS011;49877;50.398;30.324;2022-08-03T06:03:29;13.87;;;9.97;;
18168;SDS011;49877;50.398;30.324;2022-08-03T06:05:56;12.57;;;9.70;;
18168;SDS011;49877;50.398;30.324;2022-08-03T06:08:23;15.30;;;9.43;;
18168;SDS011;49877;50.398;30.324;2022-08-03T06:10:51;12.17;;;9.43;;
18168;SDS011;49877;50.398;30.324;2022-08-03T06:13:18;12.27;;;9.80;;
18168;SDS011;49877;50.398;30.324;2022-08-03T06:15:46;12.20;;;9.33;;
18168;SDS011;49877;50.398;30.324;2022-08-03T06:18:12;11.00;;;9.30;;
18168;SDS011;49877;50.398;30.324;2022-08-03T06:20:39;12.00;;;9.10;;
18168;SDS011;49877;50.398;30.324;2022-08-03T06:23:06;16.13;;;10.17;;
18168;SDS011;49877;50.398;30.324;2022-08-03T06:25:33;12.70;;;10.27;;
18168;SDS011;49877;50.398;30.324;2022-08-03T06:28:01;11.73;;;9.63;;
18168;SDS011;49877;50.398;30.324;2022-08-03T06:30:29;9.53;;;8.40;;
18168;SDS011;49877;50.398;30.324;2022-08-03T06:32:56;12.87;;;10.10;;
18168;SDS011;49877;50.398;30.324;2022-08-03T06:35:23;13.70;;;9.00;;
18168;SDS011;49877;50.398;30.324;2022-08-03T06:37:52;13.30;;;10.43;;
18168;SDS011;49877;50.398;30.324;2022-08-03T06:40:19;11.90;;;9.47;;
18168;SDS011;49877;50.398;30.324;2022-08-03T06:42:53;12.37;;;9.43;;
18168;SDS011;49877;50.398;30.324;2022-08-03T06:45:21;14.77;;;10.00;;
18168;SDS011;49877;50.398;30.324;2022-08-03T06:47:59;11.63;;;9.63;;
18168;SDS011;49877;50.398;30.324;2022-08-03T06:50:27;11.77;;;9.50;;
18168;SDS011;49877;50.398;30.324;2022-08-03T06:52:54;10.37;;;9.23;;
18168;SDS011;49877;50.398;30.324;2022-08-03T06:55:21;11.90;;;9.20;;
18168;SDS011;49877;50.398;30.324;2022-08-03T06:57:48;15.53;;;9.87;;
18168;SDS011;49877;50.398;30.324;2022-08-03T07:00:15;17.20;;;9.30;;
18168;SDS011;49877;50.398;30.324;2022-08-03T07:02:44;14.47;;;9.10;;
18168;SDS011;49877;50.398;30.324;2022-08-03T07:05:12;15.97;;;8.60;;
18168;SDS011;49877;50.398;30.324;2022-08-03T07:07:39;10.53;;;9.03;;
18168;SDS011;49877;50.398;30.324;2022-08-03T07:10:07;12.67;;;9.50;;
18168;SDS011;49877;50.398;30.324;2022-08-03T07:12:35;12.30;;;9.77;;
18168;SDS011;49877;50.398;30.324;2022-08-03T07:15:03;15.80;;;9.37;;
18168;SDS011;49877;50.398;30.324;2022-08-03T07:17:32;11.80;;;8.83;;
18168;SDS011;49877;50.398;30.324;2022-08-03T07:20:02;14.33;;;9.23;;
18168;SDS011;49877;50.398;30.324;2022-08-03T07:22:31;12.37;;;9.60;;
18168;SDS011;49877;50.398;30.324;2022-08-03T07:24:58;11.30;;;8.77;;
18168;SDS011;49877;50.398;30.324;2022-08-03T07:27:26;12.50;;;9.23;;
18168;SDS011;49877;50.398;30.324;2022-08-03T07:29:54;11.57;;;9.13;;
18168;SDS011;49877;50.398;30.324;2022-08-03T07:32:22;11.20;;;8.67;;
18168;SDS011;49877;50.398;30.324;2022-08-03T07:34:49;15.20;;;9.57;;
18168;SDS011;49877;50.398;30.324;2022-08-03T07:37:18;13.87;;;9.30;;
18168;SDS011;49877;50.398;30.324;2022-08-03T07:39:45;12.80;;;9.07;;
18168;SDS011;49877;50.398;30.324;2022-08-03T07:42:12;13.70;;;8.67;;
18168;SDS011;49877;50.398;30.324;2022-08-03T07:44:39;11.23;;;8.20;;
18168;SDS011;49877;50.398;30.324;2022-08-03T07:47:06;13.00;;;8.63;;
18168;SDS011;49877;50.398;30.324;2022-08-03T07:49:32;10.50;;;8.33;;
18168;SDS011;49877;50.398;30.324;2022-08-03T07:52:03;11.67;;;8.83;;
18168;SDS011;49877;50.398;30.324;2022-08-03T07:54:49;12.67;;;8.80;;
18168;SDS011;49877;50.398;30.324;2022-08-03T07:57:16;15.07;;;9.00;;
18168;SDS011;49877;50.398;30.324;2022-08-03T07:59:44;10.53;;;8.83;;
18168;SDS011;49877;50.398;30.324;2022-08-03T08:02:11;12.23;;;8.27;;
18168;SDS011;49877;50.398;30.324;2022-08-03T08:04:38;10.50;;;7.73;;
18168;SDS011;49877;50.398;30.324;2022-08-03T08:07:05;10.57;;;7.67;;
18168;SDS011;49877;50.398;30.324;2022-08-03T08:09:32;10.43;;;8.33;;
18168;SDS011;49877;50.398;30.324;2022-08-03T08:12:00;10.73;;;7.47;;
18168;SDS011;49877;50.398;30.324;2022-08-03T08:14:27;11.53;;;7.43;;
18168;SDS011;49877;50.398;30.324;2022-08-03T08:16:54;8.80;;;7.87;;
18168;SDS011;49877;50.398;30.324;2022-08-03T08:19:21;8.10;;;7.30;;
18168;SDS011;49877;50.398;30.324;2022-08-03T08:21:48;12.80;;;8.20;;
18168;SDS011;49877;50.398;30.324;2022-08-03T08:24:15;11.83;;;7.77;;
18168;SDS011;49877;50.398;30.324;2022-08-03T08:26:42;9.17;;;7.50;;
18168;SDS011;49877;50.398;30.324;2022-08-03T08:29:10;11.30;;;8.00;;
18168;SDS011;49877;50.398;30.324;2022-08-03T08:31:37;9.33;;;7.70;;
18168;SDS011;49877;50.398;30.324;2022-08-03T08:34:04;8.73;;;7.67;;
18168;SDS011;49877;50.398;30.324;2022-08-03T08:36:31;9.67;;;7.93;;
18168;SDS011;49877;50.398;30.324;2022-08-03T08:38:58;13.10;;;7.53;;
18168;SDS011;49877;50.398;30.324;2022-08-03T08:41:25;8.53;;;7.63;;
18168;SDS011;49877;50.398;30.324;2022-08-03T08:43:52;8.30;;;7.23;;
18168;SDS011;49877;50.398;30.324;2022-08-03T08:46:21;9.13;;;8.00;;
18168;SDS011;49877;50.398;30.324;2022-08-03T08:48:48;11.93;;;7.40;;
18168;SDS011;49877;50.398;30.324;2022-08-03T08:51:17;10.07;;;7.50;;
18168;SDS011;49877;50.398;30.324;2022-08-03T08:53:47;9.87;;;7.43;;
18168;SDS011;49877;50.398;30.324;2022-08-03T08:56:17;10.20;;;8.00;;
18168;SDS011;49877;50.398;30.324;2022-08-03T08:58:50;11.43;;;7.77;;
18168;SDS011;49877;50.398;30.324;2022-08-03T09:01:18;11.33;;;8.40;;
18168;SDS011;49877;50.398;30.324;2022-08-03T09:03:48;13.23;;;8.80;;
18168;SDS011;49877;50.398;30.324;2022-08-03T09:06:16;11.03;;;8.70;;
18168;SDS011;49877;50.398;30.324;2022-08-03T09:08:42;8.40;;;7.53;;
18168;SDS011;49877;50.398;30.324;2022-08-03T09:11:09;11.07;;;7.50;;
18168;SDS011;49877;50.398;30.324;2022-08-03T09:13:36;15.23;;;7.85;;
18168;SDS011;49877;50.398;30.324;2022-08-03T09:16:11;11.27;;;7.40;;
18168;SDS011;49877;50.398;30.324;2022-08-03T09:18:39;10.30;;;7.20;;
18168;SDS011;49877;50.398;30.324;2022-08-03T09:21:19;10.90;;;7.37;;
18168;SDS011;49877;50.398;30.324;2022-08-03T09:23:48;10.20;;;7.47;;
18168;SDS011;49877;50.398;30.324;2022-08-03T09:26:19;8.13;;;7.27;;
18168;SDS011;49877;50.398;30.324;2022-08-03T09:28:57;13.87;;;7.73;;
18168;SDS011;49877;50.398;30.324;2022-08-03T09:31:29;11.55;;;7.20;;
18168;SDS011;49877;50.398;30.324;2022-08-03T09:34:01;11.85;;;7.72;;
18168;SDS011;49877;50.398;30.324;2022-08-03T09:36:40;10.07;;;7.60;;
18168;SDS011;49877;50.398;30.324;2022-08-03T09:39:09;10.83;;;7.80;;
18168;SDS011;49877;50.398;30.324;2022-08-03T09:41:37;9.80;;;7.20;;
18168;SDS011;49877;50.398;30.324;2022-08-03T09:44:05;11.15;;;7.40;;
18168;SDS011;49877;50.398;30.324;2022-08-03T09:46:46;9.93;;;7.40;;
18168;SDS011;49877;50.398;30.324;2022-08-03T09:49:15;11.65;;;7.60;;
18168;SDS011;49877;50.398;30.324;2022-08-03T09:51:44;10.30;;;7.38;;
18168;SDS011;49877;50.398;30.324;2022-08-03T09:54:11;8.68;;;7.07;;
18168;SDS011;49877;50.398;30.324;2022-08-03T09:56:39;10.02;;;7.10;;
18168;SDS011;49877;50.398;30.324;2022-08-03T09:59:07;10.57;;;7.28;;
18168;SDS011;49877;50.398;30.324;2022-08-03T10:01:34;8.48;;;7.35;;
18168;SDS011;49877;50.398;30.324;2022-08-03T10:04:03;10.57;;;6.95;;
18168;SDS011;49877;50.398;30.324;2022-08-03T10:06:30;11.52;;;7.57;;
18168;SDS011;49877;50.398;30.324;2022-08-03T10:09:05;8.77;;;6.97;;
18168;SDS011;49877;50.398;30.324;2022-08-03T10:11:34;9.30;;;7.13;;
18168;SDS011;49877;50.398;30.324;2022-08-03T10:14:02;9.63;;;7.32;;
18168;SDS011;49877;50.398;30.324;2022-08-03T10:16:32;13.40;;;7.32;;
18168;SDS011;49877;50.398;30.324;2022-08-03T10:19:00;9.00;;;7.45;;
18168;SDS011;49877;50.398;30.324;2022-08-03T10:21:30;12.02;;;7.45;;
18168;SDS011;49877;50.398;30.324;2022-08-03T10:24:01;8.95;;;6.80;;
18168;SDS011;49877;50.398;30.324;2022-08-03T10:26:32;7.57;;;6.72;;
18168;SDS011;49877;50.398;30.324;2022-08-03T10:29:02;9.80;;;6.80;;
18168;SDS011;49877;50.398;30.324;2022-08-03T10:31:34;10.75;;;7.70;;
18168;SDS011;49877;50.398;30.324;2022-08-03T10:34:06;11.10;;;7.38;;
18168;SDS011;49877;50.398;30.324;2022-08-03T10:36:40;7.45;;;6.68;;
18168;SDS011;49877;50.398;30.324;2022-08-03T10:39:07;16.98;;;7.53;;
18168;SDS011;49877;50.398;30.324;2022-08-03T10:41:39;10.27;;;7.28;;
18168;SDS011;49877;50.398;30.324;2022-08-03T10:44:09;11.20;;;7.43;;
18168;SDS011;49877;50.398;30.324;2022-08-03T10:46:40;10.20;;;6.95;;
18168;SDS011;49877;50.398;30.324;2022-08-03T10:49:10;8.10;;;6.75;;
18168;SDS011;49877;50.398;30.324;2022-08-03T10:51:38;9.73;;;7.13;;
18168;SDS011;49877;50.398;30.324;2022-08-03T10:54:06;8.00;;;7.17;;
18168;SDS011;49877;50.398;30.324;2022-08-03T10:56:54;8.88;;;7.43;;
18168;SDS011;49877;50.398;30.324;2022-08-03T10:59:57;10.30;;;7.23;;
18168;SDS011;49877;50.398;30.324;2022-08-03T11:05:33;9.37;;;7.57;;
18168;SDS011;49877;50.398;30.324;2022-08-03T11:11:00;10.33;;;7.40;;
18168;SDS011;49877;50.398;30.324;2022-08-03T11:13:33;9.63;;;7.43;;
18168;SDS011;49877;50.398;30.324;2022-08-03T11:16:01;9.23;;;7.47;;
18168;SDS011;49877;50.398;30.324;2022-08-03T11:18:54;9.07;;;7.07;;
18168;SDS011;49877;50.398;30.324;2022-08-03T11:21:25;8.77;;;7.23;;
18168;SDS011;49877;50.398;30.324;2022-08-03T11:27:24;10.17;;;6.77;;
18168;SDS011;49877;50.398;30.324;2022-08-03T11:29:55;6.87;;;6.17;;
18168;SDS011;49877;50.398;30.324;2022-08-03T11:35:20;7.73;;;5.53;;
18168;SDS011;49877;50.398;30.324;2022-08-03T11:40:44;7.90;;;5.80;;
18168;SDS011;49877;50.398;30.324;2022-08-03T11:46:12;8.53;;;6.27;;
18168;SDS011;49877;50.398;30.324;2022-08-03T11:48:43;8.35;;;6.20;;
18168;SDS011;49877;50.398;30.324;2022-08-03T11:51:18;8.10;;;6.70;;
18168;SDS011;49877;50.398;30.324;2022-08-03T11:53:50;8.00;;;6.93;;
18168;SDS011;49877;50.398;30.324;2022-08-03T11:56:17;8.43;;;6.43;;
18168;SDS011;49877;50.398;30.324;2022-08-03T11:58:45;12.18;;;7.10;;
18168;SDS011;49877;50.398;30.324;2022-08-03T12:01:14;8.63;;;6.55;;
18168;SDS011;49877;50.398;30.324;2022-08-03T12:03:41;8.07;;;6.30;;
18168;SDS011;49877;50.398;30.324;2022-08-03T12:06:09;8.25;;;6.65;;
18168;SDS011;49877;50.398;30.324;2022-08-03T12:08:37;12.63;;;6.93;;
18168;SDS011;49877;50.398;30.324;2022-08-03T12:11:06;8.15;;;6.30;;
18168;SDS011;49877;50.398;30.324;2022-08-03T12:13:37;9.25;;;6.80;;
18168;SDS011;49877;50.398;30.324;2022-08-03T12:16:05;7.90;;;6.60;;
18168;SDS011;49877;50.398;30.324;2022-08-03T12:18:34;8.68;;;6.70;;
18168;SDS011;49877;50.398;30.324;2022-08-03T12:21:03;8.45;;;6.57;;
18168;SDS011;49877;50.398;30.324;2022-08-03T12:23:31;12.48;;;6.78;;
18168;SDS011;49877;50.398;30.324;2022-08-03T12:26:02;6.95;;;6.10;;
18168;SDS011;49877;50.398;30.324;2022-08-03T12:28:29;10.15;;;5.75;;
18168;SDS011;49877;50.398;30.324;2022-08-03T12:30:59;8.18;;;6.22;;
18168;SDS011;49877;50.398;30.324;2022-08-03T12:33:30;9.32;;;6.22;;
18168;SDS011;49877;50.398;30.324;2022-08-03T12:36:06;9.27;;;6.32;;
18168;SDS011;49877;50.398;30.324;2022-08-03T12:38:35;10.50;;;6.40;;
18168;SDS011;49877;50.398;30.324;2022-08-03T12:41:04;7.45;;;6.10;;
18168;SDS011;49877;50.398;30.324;2022-08-03T12:43:32;8.15;;;7.35;;
18168;SDS011;49877;50.398;30.324;2022-08-03T12:46:09;9.40;;;6.88;;
18168;SDS011;49877;50.398;30.324;2022-08-03T12:51:28;7.87;;;6.83;;
18168;SDS011;49877;50.398;30.324;2022-08-03T12:53:56;12.70;;;7.82;;
18168;SDS011;49877;50.398;30.324;2022-08-03T12:56:24;8.18;;;6.97;;
18168;SDS011;49877;50.398;30.324;2022-08-03T12:58:51;8.38;;;7.07;;
18168;SDS011;49877;50.398;30.324;2022-08-03T13:01:18;9.05;;;8.02;;
18168;SDS011;49877;50.398;30.324;2022-08-03T13:03:48;8.80;;;7.37;;
18168;SDS011;49877;50.398;30.324;2022-08-03T13:06:17;8.60;;;7.13;;
18168;SDS011;49877;50.398;30.324;2022-08-03T13:08:46;9.30;;;7.47;;
18168;SDS011;49877;50.398;30.324;2022-08-03T13:11:20;11.20;;;7.95;;
18168;SDS011;49877;50.398;30.324;2022-08-03T13:13:48;9.60;;;7.05;;
18168;SDS011;49877;50.398;30.324;2022-08-03T13:16:16;8.43;;;6.60;;
18168;SDS011;49877;50.398;30.324;2022-08-03T13:18:43;10.17;;;5.73;;
18168;SDS011;49877;50.398;30.324;2022-08-03T13:21:11;6.07;;;5.10;;
18168;SDS011;49877;50.398;30.324;2022-08-03T13:23:39;8.20;;;5.75;;
18168;SDS011;49877;50.398;30.324;2022-08-03T13:26:07;7.35;;;5.88;;
18168;SDS011;49877;50.398;30.324;2022-08-03T13:28:34;8.38;;;6.00;;
18168;SDS011;49877;50.398;30.324;2022-08-03T13:31:01;6.45;;;5.47;;
18168;SDS011;49877;50.398;30.324;2022-08-03T13:33:29;6.90;;;5.53;;
18168;SDS011;49877;50.398;30.324;2022-08-03T13:35:56;7.03;;;5.83;;
18168;SDS011;49877;50.398;30.324;2022-08-03T13:38:23;8.25;;;5.45;;
18168;SDS011;49877;50.398;30.324;2022-08-03T13:40:50;8.32;;;5.65;;
18168;SDS011;49877;50.398;30.324;2022-08-03T13:43:19;8.52;;;4.40;;
18168;SDS011;49877;50.398;30.324;2022-08-03T13:45:46;8.20;;;4.80;;
18168;SDS011;49877;50.398;30.324;2022-08-03T13:48:13;8.73;;;4.43;;
18168;SDS011;49877;50.398;30.324;2022-08-03T13:50:40;6.47;;;5.07;;
18168;SDS011;49877;50.398;30.324;2022-08-03T13:53:07;5.50;;;4.63;;
18168;SDS011;49877;50.398;30.324;2022-08-03T13:55:34;5.33;;;4.70;;
18168;SDS011;49877;50.398;30.324;2022-08-03T13:58:01;5.95;;;4.70;;
18168;SDS011;49877;50.398;30.324;2022-08-03T14:00:29;5.37;;;4.53;;
18168;SDS011;49877;50.398;30.324;2022-08-03T14:02:57;5.43;;;4.63;;
18168;SDS011;49877;50.398;30.324;2022-08-03T14:05:25;4.97;;;4.45;;
18168;SDS011;49877;50.398;30.324;2022-08-03T14:07:51;5.80;;;4.47;;
18168;SDS011;49877;50.398;30.324;2022-08-03T14:10:19;5.93;;;4.97;;
18168;SDS011;49877;50.398;30.324;2022-08-03T14:12:46;9.60;;;5.35;;
18168;SDS011;49877;50.398;30.324;2022-08-03T14:15:12;6.87;;;4.83;;
18168;SDS011;49877;50.398;30.324;2022-08-03T14:17:41;5.97;;;5.00;;
18168;SDS011;49877;50.398;30.324;2022-08-03T14:20:08;8.77;;;5.80;;
18168;SDS011;49877;50.398;30.324;2022-08-03T14:22:36;7.50;;;5.17;;
18168;SDS011;49877;50.398;30.324;2022-08-03T14:25:04;7.97;;;5.17;;
18168;SDS011;49877;50.398;30.324;2022-08-03T14:27:32;8.20;;;5.10;;
18168;SDS011;49877;50.398;30.324;2022-08-03T14:29:58;6.10;;;4.10;;
18168;SDS011;49877;50.398;30.324;2022-08-03T14:32:25;6.43;;;4.57;;
18168;SDS011;49877;50.398;30.324;2022-08-03T14:34:54;6.03;;;4.45;;
18168;SDS011;49877;50.398;30.324;2022-08-03T14:37:21;8.23;;;4.90;;
18168;SDS011;49877;50.398;30.324;2022-08-03T14:39:48;8.83;;;5.17;;
18168;SDS011;49877;50.398;30.324;2022-08-03T14:42:14;10.07;;;4.83;;
18168;SDS011;49877;50.398;30.324;2022-08-03T14:44:41;9.23;;;4.90;;
18168;SDS011;49877;50.398;30.324;2022-08-03T14:47:08;8.90;;;5.60;;
18168;SDS011;49877;50.398;30.324;2022-08-03T14:49:35;6.77;;;5.50;;
18168;SDS011;49877;50.398;30.324;2022-08-03T14:52:04;10.47;;;5.50;;
18168;SDS011;49877;50.398;30.324;2022-08-03T14:54:31;7.37;;;6.00;;